createdAt,value
2023-02-02T00:00:36.196Z,440.0
2023-02-02T00:01:36.164Z,358.0
2023-02-02T00:02:36.210Z,315.0
2023-02-02T00:03:36.139Z,300.0
2023-02-02T00:04:36.146Z,302.0
2023-02-02T00:05:36.100Z,318.0
2023-02-02T00:06:36.108Z,310.0
2023-02-02T00:07:36.090Z,325.0
2023-02-02T00:08:36.076Z,331.0
2023-02-02T00:09:36.072Z,318.0
2023-02-02T00:10:36.107Z,330.0
2023-02-02T00:11:36.044Z,346.0
2023-02-02T00:12:36.018Z,352.0
2023-02-02T00:13:36.019Z,354.0
2023-02-02T00:14:36.011Z,359.0
2023-02-02T00:15:35.987Z,343.0
2023-02-02T00:16:35.984Z,348.0
2023-02-02T00:17:35.973Z,355.0
2023-02-02T00:18:35.965Z,356.0
2023-02-02T00:19:35.937Z,351.0
2023-02-02T00:20:35.923Z,342.0
2023-02-02T00:21:35.891Z,299.0
2023-02-02T00:22:35.891Z,302.0
2023-02-02T00:23:35.886Z,295.0
2023-02-02T00:24:35.864Z,299.0
2023-02-02T00:25:35.879Z,320.0
2023-02-02T00:26:35.849Z,339.0
2023-02-02T00:27:35.829Z,342.0
2023-02-02T00:28:35.833Z,343.0
2023-02-02T00:29:35.831Z,338.0
2023-02-02T00:30:35.806Z,324.0
2023-02-02T00:31:35.817Z,327.0
2023-02-02T00:32:35.760Z,309.0
2023-02-02T00:33:35.781Z,314.0
2023-02-02T00:34:35.733Z,329.0
2023-02-02T00:35:35.734Z,323.0
2023-02-02T00:36:35.714Z,318.0
2023-02-02T00:37:35.709Z,323.0
2023-02-02T00:38:35.688Z,346.0
2023-02-02T00:39:35.654Z,346.0
2023-02-02T00:40:35.672Z,319.0
2023-02-02T00:41:35.651Z,314.0
2023-02-02T00:42:35.627Z,302.0
2023-02-02T00:43:35.626Z,294.0
2023-02-02T00:44:35.598Z,292.0
2023-02-02T00:45:35.619Z,295.0
2023-02-02T00:46:35.583Z,293.0
2023-02-02T00:47:35.567Z,292.0
2023-02-02T00:48:35.564Z,307.0
2023-02-02T00:49:35.529Z,297.0
2023-02-02T00:50:35.540Z,297.0
2023-02-02T00:51:35.497Z,299.0
2023-02-02T00:52:35.493Z,296.0
2023-02-02T00:53:35.539Z,303.0
2023-02-02T00:54:35.459Z,335.0
2023-02-02T00:55:35.444Z,343.0
2023-02-02T00:56:35.462Z,350.0
2023-02-02T00:57:35.422Z,349.0
2023-02-02T00:58:35.455Z,393.0
2023-02-02T00:59:35.405Z,446.0
2023-02-02T01:00:58.984Z,426.0
2023-02-02T01:01:35.380Z,437.0
2023-02-02T01:02:35.357Z,438.0
2023-02-02T01:03:35.354Z,455.0
2023-02-02T01:04:35.336Z,425.0
2023-02-02T01:05:35.314Z,425.0
2023-02-02T01:06:35.321Z,424.0
2023-02-02T01:07:35.294Z,442.0
2023-02-02T01:08:35.341Z,356.0
2023-02-02T01:09:35.277Z,346.0
2023-02-02T01:10:35.285Z,349.0
2023-02-02T01:11:35.255Z,340.0
2023-02-02T01:12:35.245Z,336.0
2023-02-02T01:13:35.204Z,346.0
2023-02-02T01:14:35.244Z,351.0
2023-02-02T01:15:35.180Z,348.0
2023-02-02T01:16:35.251Z,365.0
2023-02-02T01:17:35.193Z,405.0
2023-02-02T01:18:35.161Z,386.0
2023-02-02T01:19:35.151Z,403.0
2023-02-02T01:20:35.148Z,441.0
2023-02-02T01:21:35.107Z,377.0
2023-02-02T01:22:35.133Z,423.0
2023-02-02T01:23:35.079Z,407.0
2023-02-02T01:24:35.071Z,411.0
2023-02-02T01:25:35.145Z,427.0
2023-02-02T01:26:35.054Z,452.0
2023-02-02T01:27:35.027Z,402.0
2023-02-02T01:28:35.030Z,411.0
2023-02-02T01:29:35.013Z,429.0
2023-02-02T01:30:35.011Z,426.0
2023-02-02T01:31:35.003Z,428.0
2023-02-02T01:32:34.977Z,430.0
2023-02-02T01:33:34.957Z,425.0
2023-02-02T01:34:34.955Z,403.0
2023-02-02T01:35:34.914Z,419.0
2023-02-02T01:36:34.907Z,427.0
2023-02-02T01:37:34.899Z,421.0
2023-02-02T01:38:34.907Z,413.0
2023-02-02T01:39:34.886Z,389.0
2023-02-02T01:40:34.860Z,422.0
2023-02-02T01:41:34.889Z,396.0
2023-02-02T01:42:34.852Z,418.0
2023-02-02T01:43:34.809Z,392.0
2023-02-02T01:44:34.825Z,370.0
2023-02-02T01:45:34.823Z,339.0
2023-02-02T01:46:34.782Z,346.0
2023-02-02T01:47:34.765Z,362.0
2023-02-02T01:48:34.752Z,397.0
2023-02-02T01:49:34.747Z,415.0
2023-02-02T01:50:34.728Z,452.0
2023-02-02T01:51:34.721Z,444.0
2023-02-02T01:52:34.716Z,367.0
2023-02-02T01:53:34.704Z,442.0
2023-02-02T01:54:34.686Z,462.0
2023-02-02T01:55:34.670Z,461.0
2023-02-02T01:56:34.658Z,452.0
2023-02-02T01:57:34.642Z,447.0
2023-02-02T01:58:34.615Z,365.0
2023-02-02T01:59:34.601Z,352.0
2023-02-02T02:00:34.586Z,346.0
2023-02-02T02:01:34.651Z,349.0
2023-02-02T02:02:34.669Z,343.0
2023-02-02T02:03:34.543Z,341.0
2023-02-02T02:04:34.560Z,325.0
2023-02-02T02:05:34.519Z,320.0
2023-02-02T02:06:34.529Z,328.0
2023-02-02T02:07:34.501Z,339.0
2023-02-02T02:08:34.488Z,348.0
2023-02-02T02:09:34.474Z,368.0
2023-02-02T02:10:34.472Z,352.0
2023-02-02T02:11:34.476Z,364.0
2023-02-02T02:12:34.435Z,411.0
2023-02-02T02:13:34.439Z,380.0
2023-02-02T02:14:34.412Z,357.0
2023-02-02T02:15:34.390Z,371.0
2023-02-02T02:16:34.428Z,346.0
2023-02-02T02:17:34.373Z,343.0
2023-02-02T02:18:34.385Z,333.0
2023-02-02T02:19:34.379Z,352.0
2023-02-02T02:20:34.333Z,353.0
2023-02-02T02:21:34.312Z,358.0
2023-02-02T02:22:34.307Z,351.0
2023-02-02T02:23:34.302Z,357.0
2023-02-02T02:24:34.436Z,351.0
2023-02-02T02:25:34.280Z,342.0
2023-02-02T02:26:34.336Z,349.0
2023-02-02T02:27:34.235Z,344.0
2023-02-02T02:28:34.223Z,350.0
2023-02-02T02:29:34.201Z,342.0
2023-02-02T02:30:34.280Z,332.0
2023-02-02T02:31:34.304Z,332.0
2023-02-02T02:32:34.197Z,324.0
2023-02-02T02:33:34.165Z,312.0
2023-02-02T02:34:34.175Z,304.0
2023-02-02T02:35:34.142Z,299.0
2023-02-02T02:36:34.139Z,300.0
2023-02-02T02:37:34.138Z,291.0
2023-02-02T02:38:34.098Z,287.0
2023-02-02T02:39:34.090Z,290.0
2023-02-02T02:40:34.081Z,287.0
2023-02-02T02:41:34.054Z,297.0
2023-02-02T02:42:34.041Z,290.0
2023-02-02T02:43:34.021Z,285.0
2023-02-02T02:44:34.035Z,297.0
2023-02-02T02:45:34.005Z,315.0
2023-02-02T02:46:34.030Z,353.0
2023-02-02T02:47:33.975Z,347.0
2023-02-02T02:48:33.970Z,332.0
2023-02-02T02:49:33.943Z,380.0
2023-02-02T02:50:33.934Z,347.0
2023-02-02T02:51:34.042Z,346.0
2023-02-02T02:52:33.905Z,350.0
2023-02-02T02:53:33.892Z,350.0
2023-02-02T02:54:33.888Z,348.0
2023-02-02T02:55:33.875Z,344.0
2023-02-02T02:56:33.934Z,347.0
2023-02-02T02:57:33.866Z,340.0
2023-02-02T02:58:33.835Z,340.0
2023-02-02T02:59:33.838Z,345.0
2023-02-02T03:00:33.805Z,354.0
2023-02-02T03:01:33.794Z,386.0
2023-02-02T03:02:33.830Z,346.0
2023-02-02T03:03:33.802Z,350.0
2023-02-02T03:04:33.776Z,356.0
2023-02-02T03:05:33.731Z,342.0
2023-02-02T03:06:33.759Z,351.0
2023-02-02T03:07:33.728Z,351.0
2023-02-02T03:08:33.723Z,425.0
2023-02-02T03:09:33.722Z,366.0
2023-02-02T03:10:33.687Z,365.0
2023-02-02T03:11:33.663Z,351.0
2023-02-02T03:12:33.657Z,402.0
2023-02-02T03:13:33.646Z,405.0
2023-02-02T03:14:33.617Z,370.0
2023-02-02T03:15:33.652Z,362.0
2023-02-02T03:16:33.607Z,341.0
2023-02-02T03:17:33.599Z,324.0
2023-02-02T03:18:33.576Z,324.0
2023-02-02T03:19:33.590Z,292.0
2023-02-02T03:20:33.566Z,306.0
2023-02-02T03:21:33.548Z,356.0
2023-02-02T03:22:33.527Z,352.0
2023-02-02T03:23:33.510Z,345.0
2023-02-02T03:24:33.505Z,338.0
2023-02-02T03:25:33.476Z,326.0
2023-02-02T03:26:33.498Z,308.0
2023-02-02T03:27:33.454Z,301.0
2023-02-02T03:28:33.438Z,302.0
2023-02-02T03:29:33.449Z,311.0
2023-02-02T03:30:33.475Z,307.0
2023-02-02T03:31:33.585Z,301.0
2023-02-02T03:32:33.377Z,293.0
2023-02-02T03:33:33.383Z,291.0
2023-02-02T03:34:33.383Z,297.0
2023-02-02T03:35:33.365Z,333.0
2023-02-02T03:36:33.335Z,322.0
2023-02-02T03:37:33.345Z,332.0
2023-02-02T03:38:33.316Z,354.0
2023-02-02T03:39:33.314Z,333.0
2023-02-02T03:40:33.292Z,322.0
2023-02-02T03:41:33.266Z,289.0
2023-02-02T03:42:33.287Z,287.0
2023-02-02T03:43:33.260Z,275.0
2023-02-02T03:44:33.272Z,279.0
2023-02-02T03:45:33.229Z,284.0
2023-02-02T03:46:33.227Z,283.0
2023-02-02T03:47:33.186Z,285.0
2023-02-02T03:48:33.169Z,281.0
2023-02-02T03:49:33.191Z,278.0
2023-02-02T03:50:33.173Z,276.0
2023-02-02T03:51:33.156Z,282.0
2023-02-02T03:52:33.137Z,292.0
2023-02-02T03:53:33.110Z,287.0
2023-02-02T03:54:33.087Z,290.0
2023-02-02T03:55:33.089Z,285.0
2023-02-02T03:56:33.059Z,288.0
2023-02-02T03:57:33.065Z,290.0
2023-02-02T03:58:33.052Z,308.0
2023-02-02T03:59:33.060Z,311.0
2023-02-02T04:00:33.025Z,310.0
2023-02-02T04:01:33.067Z,309.0
2023-02-02T04:02:33.019Z,300.0
2023-02-02T04:03:33.004Z,294.0
2023-02-02T04:04:32.971Z,300.0
2023-02-02T04:05:32.987Z,315.0
2023-02-02T04:06:32.932Z,318.0
2023-02-02T04:07:32.942Z,327.0
2023-02-02T04:08:32.918Z,333.0
2023-02-02T04:09:32.928Z,337.0
2023-02-02T04:10:32.907Z,334.0
2023-02-02T04:11:32.896Z,316.0
2023-02-02T04:12:32.868Z,332.0
2023-02-02T04:13:32.846Z,336.0
2023-02-02T04:14:32.869Z,379.0
2023-02-02T04:15:32.863Z,350.0
2023-02-02T04:16:32.854Z,331.0
2023-02-02T04:17:32.816Z,339.0
2023-02-02T04:18:32.784Z,347.0
2023-02-02T04:19:32.800Z,340.0
2023-02-02T04:20:32.855Z,345.0
2023-02-02T04:21:32.902Z,296.0
2023-02-02T04:22:32.758Z,291.0
2023-02-02T04:23:32.749Z,312.0
2023-02-02T04:24:32.716Z,291.0
2023-02-02T04:25:32.711Z,293.0
2023-02-02T04:26:32.754Z,295.0
2023-02-02T04:27:32.695Z,290.0
2023-02-02T04:28:32.650Z,287.0
2023-02-02T04:29:32.670Z,297.0
2023-02-02T04:30:32.655Z,291.0
2023-02-02T04:31:32.611Z,293.0
2023-02-02T04:32:32.615Z,293.0
2023-02-02T04:33:32.610Z,301.0
2023-02-02T04:34:32.585Z,299.0
2023-02-02T04:35:32.577Z,293.0
2023-02-02T04:36:32.571Z,304.0
2023-02-02T04:37:32.569Z,309.0
2023-02-02T04:38:32.518Z,436.0
2023-02-02T04:39:32.519Z,363.0
2023-02-02T04:40:32.492Z,374.0
2023-02-02T04:41:32.479Z,373.0
2023-02-02T04:42:32.475Z,391.0
2023-02-02T04:43:32.451Z,402.0
2023-02-02T04:44:32.442Z,359.0
2023-02-02T04:45:32.465Z,385.0
2023-02-02T04:46:32.426Z,385.0
2023-02-02T04:47:32.407Z,358.0
2023-02-02T04:48:32.389Z,362.0
2023-02-02T04:49:32.382Z,350.0
2023-02-02T04:50:32.380Z,351.0
2023-02-02T04:51:32.353Z,342.0
2023-02-02T04:52:32.335Z,340.0
2023-02-02T04:53:32.338Z,327.0
2023-02-02T04:54:32.302Z,321.0
2023-02-02T04:55:32.299Z,312.0
2023-02-02T04:56:32.283Z,313.0
2023-02-02T04:57:32.265Z,310.0
2023-02-02T04:58:32.273Z,294.0
2023-02-02T04:59:32.268Z,293.0
2023-02-02T05:00:32.226Z,294.0
2023-02-02T05:01:32.246Z,297.0
2023-02-02T05:02:32.215Z,295.0
2023-02-02T05:03:32.198Z,300.0
2023-02-02T05:04:32.319Z,296.0
2023-02-02T05:05:32.183Z,295.0
2023-02-02T05:06:32.205Z,290.0
2023-02-02T05:07:32.161Z,291.0
2023-02-02T05:08:32.136Z,288.0
2023-02-02T05:09:32.111Z,287.0
2023-02-02T05:10:32.121Z,285.0
2023-02-02T05:11:32.093Z,284.0
2023-02-02T05:12:32.100Z,297.0
2023-02-02T05:13:32.071Z,308.0
2023-02-02T05:14:32.068Z,328.0
2023-02-02T05:15:32.056Z,320.0
2023-02-02T05:16:32.053Z,310.0
2023-02-02T05:17:32.041Z,326.0
2023-02-02T05:18:31.989Z,342.0
2023-02-02T05:19:32.001Z,344.0
2023-02-02T05:20:31.961Z,344.0
2023-02-02T05:21:31.975Z,350.0
2023-02-02T05:22:31.968Z,353.0
2023-02-02T05:23:31.942Z,364.0
2023-02-02T05:24:31.949Z,430.0
2023-02-02T05:25:31.899Z,446.0
2023-02-02T05:26:31.961Z,425.0
2023-02-02T05:27:31.895Z,438.0
2023-02-02T05:28:31.868Z,436.0
2023-02-02T05:29:31.860Z,448.0
2023-02-02T05:30:33.548Z,432.0
2023-02-02T05:31:31.890Z,442.0
2023-02-02T05:32:31.827Z,442.0
2023-02-02T05:33:31.819Z,458.0
2023-02-02T05:34:31.793Z,445.0
2023-02-02T05:35:31.780Z,436.0
2023-02-02T05:36:31.774Z,456.0
2023-02-02T05:37:31.747Z,440.0
2023-02-02T05:38:31.738Z,433.0
2023-02-02T05:39:31.719Z,427.0
2023-02-02T05:40:31.719Z,433.0
2023-02-02T05:41:31.694Z,431.0
2023-02-02T05:42:31.673Z,423.0
2023-02-02T05:43:31.719Z,398.0
2023-02-02T05:44:31.668Z,438.0
2023-02-02T05:45:31.637Z,438.0
2023-02-02T05:46:31.622Z,439.0
2023-02-02T05:47:31.625Z,442.0
2023-02-02T05:48:31.597Z,413.0
2023-02-02T05:49:31.597Z,411.0
2023-02-02T05:50:31.585Z,406.0
2023-02-02T05:51:31.595Z,368.0
2023-02-02T05:52:31.555Z,378.0
2023-02-02T05:53:31.536Z,380.0
2023-02-02T05:54:31.514Z,349.0
2023-02-02T05:55:31.522Z,344.0
2023-02-02T05:56:31.509Z,345.0
2023-02-02T05:57:31.510Z,358.0
2023-02-02T05:58:31.462Z,349.0
2023-02-02T05:59:31.454Z,329.0
2023-02-02T06:00:31.457Z,401.0
2023-02-02T06:01:31.451Z,359.0
2023-02-02T06:02:31.415Z,353.0
2023-02-02T06:03:31.593Z,348.0
2023-02-02T06:04:31.406Z,335.0
2023-02-02T06:05:31.409Z,338.0
2023-02-02T06:06:31.392Z,344.0
2023-02-02T06:07:31.356Z,352.0
2023-02-02T06:08:31.327Z,328.0
2023-02-02T06:09:31.341Z,346.0
2023-02-02T06:10:31.308Z,340.0
2023-02-02T06:11:31.299Z,343.0
2023-02-02T06:12:31.304Z,344.0
2023-02-02T06:13:31.271Z,341.0
2023-02-02T06:14:31.265Z,349.0
2023-02-02T06:15:31.300Z,318.0
2023-02-02T06:16:31.256Z,323.0
2023-02-02T06:17:31.235Z,313.0
2023-02-02T06:18:31.214Z,320.0
2023-02-02T06:19:31.209Z,306.0
2023-02-02T06:20:31.192Z,293.0
2023-02-02T06:21:31.195Z,286.0
2023-02-02T06:22:31.186Z,286.0
2023-02-02T06:23:31.138Z,288.0
2023-02-02T06:24:31.131Z,288.0
2023-02-02T06:25:31.129Z,294.0
2023-02-02T06:26:31.135Z,305.0
2023-02-02T06:27:31.102Z,295.0
2023-02-02T06:28:31.132Z,290.0
2023-02-02T06:29:31.072Z,288.0
2023-02-02T06:30:31.061Z,294.0
2023-02-02T06:31:31.132Z,288.0
2023-02-02T06:32:31.038Z,287.0
2023-02-02T06:33:31.009Z,291.0
2023-02-02T06:34:31.014Z,293.0
2023-02-02T06:35:31.003Z,309.0
2023-02-02T06:36:30.987Z,305.0
2023-02-02T06:37:30.973Z,308.0
2023-02-02T06:38:30.943Z,316.0
2023-02-02T06:39:30.946Z,329.0
2023-02-02T06:40:30.934Z,335.0
2023-02-02T06:41:30.896Z,338.0
2023-02-02T06:42:30.896Z,339.0
2023-02-02T06:43:30.891Z,344.0
2023-02-02T06:44:30.860Z,344.0
2023-02-02T06:45:30.873Z,338.0
2023-02-02T06:46:30.907Z,339.0
2023-02-02T06:47:30.830Z,354.0
2023-02-02T06:48:30.844Z,359.0
2023-02-02T06:49:30.807Z,352.0
2023-02-02T06:50:30.815Z,353.0
2023-02-02T06:51:30.771Z,350.0
2023-02-02T06:52:30.768Z,349.0
2023-02-02T06:53:30.801Z,330.0
2023-02-02T06:54:30.748Z,330.0
2023-02-02T06:55:30.751Z,324.0
2023-02-02T06:56:30.723Z,302.0
2023-02-02T06:57:30.696Z,306.0
2023-02-02T06:58:30.689Z,319.0
2023-02-02T06:59:30.664Z,324.0
2023-02-02T07:00:30.736Z,308.0
2023-02-02T07:01:30.675Z,304.0
2023-02-02T07:02:30.639Z,308.0
2023-02-02T07:03:30.626Z,317.0
2023-02-02T07:04:30.614Z,320.0
2023-02-02T07:05:31.156Z,326.0
2023-02-02T07:06:30.590Z,325.0
2023-02-02T07:07:30.574Z,324.0
2023-02-02T07:08:30.546Z,293.0
2023-02-02T07:09:30.536Z,294.0
2023-02-02T07:11:11.027Z,300.0
2023-02-02T07:11:30.598Z,297.0
2023-02-02T07:12:30.496Z,294.0
2023-02-02T07:13:30.503Z,302.0
2023-02-02T07:14:30.466Z,302.0
2023-02-02T07:15:30.461Z,304.0
2023-02-02T07:16:30.458Z,313.0
2023-02-02T07:17:30.450Z,320.0
2023-02-02T07:18:30.419Z,329.0
2023-02-02T07:19:30.420Z,337.0
2023-02-02T07:20:30.396Z,340.0
2023-02-02T07:21:30.417Z,336.0
2023-02-02T07:22:30.378Z,300.00
2023-02-02T07:23:30.348Z,293.00
2023-02-02T07:24:30.349Z,285.00
2023-02-02T07:25:30.338Z,308.00
2023-02-02T07:26:30.342Z,328.00
2023-02-02T07:27:30.303Z,335.00
2023-02-02T07:28:30.306Z,342.00
2023-02-02T07:29:30.294Z,348.00
2023-02-02T07:30:30.309Z,347.00
2023-02-02T07:31:30.373Z,358.00
2023-02-02T07:32:30.265Z,351.00
2023-02-02T07:33:30.235Z,351.00
2023-02-02T07:34:30.236Z,363.00
2023-02-02T07:35:30.195Z,350.00
2023-02-02T07:36:30.197Z,346.00
2023-02-02T07:37:30.164Z,348.00
2023-02-02T07:38:30.190Z,340.00
2023-02-02T07:39:30.144Z,308.00
2023-02-02T07:40:30.142Z,305.00
2023-02-02T07:41:30.118Z,329.00
2023-02-02T07:42:30.106Z,369.00
2023-02-02T07:43:30.084Z,458.00
2023-02-02T07:44:30.083Z,452.00
2023-02-02T07:45:30.076Z,431.00
2023-02-02T07:46:30.093Z,465.00
2023-02-02T07:47:30.039Z,425.00
2023-02-02T07:48:30.029Z,438.00
2023-02-02T07:49:30.014Z,431.00
2023-02-02T07:50:30.009Z,438.00
2023-02-02T07:51:29.976Z,446.00
2023-02-02T07:52:29.983Z,422.00
2023-02-02T07:53:29.967Z,378.00
2023-02-02T07:54:29.973Z,370.00
2023-02-02T07:55:30.250Z,344.00
2023-02-02T07:56:29.914Z,352.00
2023-02-02T07:57:29.910Z,354.00
2023-02-02T07:58:29.907Z,361.00
2023-02-02T07:59:32.211Z,352.00
2023-02-02T08:00:29.884Z,343.00
2023-02-02T08:01:29.884Z,333.00
2023-02-02T08:02:29.896Z,301.00
2023-02-02T08:03:29.819Z,285.00
2023-02-02T08:04:29.842Z,329.00
2023-02-02T08:05:29.806Z,334.00
2023-02-02T08:06:29.841Z,313.00
2023-02-02T08:07:29.784Z,292.00
2023-02-02T08:08:29.767Z,291.00
2023-02-02T08:09:29.744Z,328.00
2023-02-02T08:10:29.747Z,311.00
2023-02-02T08:11:29.730Z,300.00
2023-02-02T08:12:29.721Z,299.00
2023-02-02T08:13:29.711Z,307.00
2023-02-02T08:14:29.690Z,316.00
2023-02-02T08:15:29.686Z,308.00
2023-02-02T08:16:29.903Z,327.00
2023-02-02T08:17:29.637Z,342.00
2023-02-02T08:18:29.631Z,344.00
2023-02-02T08:19:29.638Z,337.00
2023-02-02T08:20:29.602Z,322.00
2023-02-02T08:21:29.614Z,321.00
2023-02-02T08:22:29.579Z,346.00
2023-02-02T08:23:29.584Z,353.00
2023-02-02T08:24:29.551Z,344.00
2023-02-02T08:25:29.551Z,318.00
2023-02-02T08:26:29.683Z,367.00
2023-02-02T08:27:29.505Z,360.00
2023-02-02T08:28:29.532Z,417.00
2023-02-02T08:29:29.485Z,412.00
2023-02-02T08:30:29.475Z,412.00
2023-02-02T08:31:29.520Z,348.00
2023-02-02T08:32:29.467Z,342.00
2023-02-02T08:33:29.435Z,348.00
2023-02-02T08:34:29.416Z,357.00
2023-02-02T08:35:29.395Z,352.00
2023-02-02T08:36:29.433Z,338.00
2023-02-02T08:37:29.396Z,331.00
2023-02-02T08:38:29.433Z,330.00
2023-02-02T08:39:29.345Z,328.00
2023-02-02T08:40:29.411Z,327.00
2023-02-02T08:41:29.389Z,326.00
2023-02-02T08:42:29.337Z,335.00
2023-02-02T08:43:29.335Z,369.00
2023-02-02T08:44:45.884Z,427.00
2023-02-02T08:46:08.130Z,377.00
2023-02-02T08:46:29.405Z,369.00
2023-02-02T08:47:29.248Z,383.00
2023-02-02T08:48:29.240Z,367.00
2023-02-02T08:49:29.224Z,299.00
2023-02-02T08:50:29.233Z,318.00
2023-02-02T08:51:29.196Z,393.00
2023-02-02T08:52:29.179Z,299.00
2023-02-02T08:53:29.198Z,324.00
2023-02-02T08:54:29.159Z,315.00
2023-02-02T08:55:29.133Z,365.00
2023-02-02T08:56:29.175Z,355.00
2023-02-02T08:57:29.124Z,342.00
2023-02-02T08:58:29.132Z,337.00
2023-02-02T08:59:29.098Z,337.00
2023-02-02T09:00:29.142Z,339.00
2023-02-02T09:01:29.108Z,335.00
2023-02-02T09:02:29.069Z,337.00
2023-02-02T09:03:29.042Z,332.00
2023-02-02T09:04:29.030Z,331.00
2023-02-02T09:05:29.019Z,336.00
2023-02-02T09:06:29.000Z,336.00
2023-02-02T09:07:28.975Z,341.00
2023-02-02T09:08:29.099Z,320.00
2023-02-02T09:09:28.955Z,335.00
2023-02-02T09:10:28.983Z,332.00
2023-02-02T09:11:28.941Z,365.00
2023-02-02T09:12:28.941Z,384.00
2023-02-02T09:13:28.903Z,268.00
2023-02-02T09:14:28.923Z,373.00
2023-02-02T09:15:28.913Z,385.00
2023-02-02T09:16:28.921Z,303.00
2023-02-02T09:17:28.872Z,326.00
2023-02-02T09:18:28.864Z,308.00
2023-02-02T09:19:28.861Z,359.00
2023-02-02T09:20:28.828Z,399.00
2023-02-02T09:21:28.807Z,419.00
2023-02-02T09:22:29.034Z,367.00
2023-02-02T09:23:28.775Z,317.00
2023-02-02T09:24:28.780Z,321.00
2023-02-02T09:25:28.778Z,345.00
2023-02-02T09:26:28.843Z,366.00
2023-02-02T09:27:28.719Z,305.00
2023-02-02T09:28:28.698Z,332.00
2023-02-02T09:29:28.711Z,439.00
2023-02-02T09:30:28.701Z,266.00
2023-02-02T09:31:28.713Z,404.00
2023-02-02T09:32:28.675Z,401.00
2023-02-02T09:33:28.636Z,403.00
2023-02-02T09:34:28.645Z,339.00
2023-02-02T09:35:28.634Z,345.00
2023-02-02T09:36:28.650Z,323.00
2023-02-02T09:37:28.593Z,318.00
2023-02-02T09:38:28.583Z,309.00
2023-02-02T09:39:28.587Z,312.00
2023-02-02T09:40:28.533Z,306.00
2023-02-02T09:41:28.557Z,298.00
2023-02-02T09:42:28.531Z,283.00
2023-02-02T09:43:28.494Z,349.00
2023-02-02T09:44:28.512Z,449.00
2023-02-02T09:45:28.487Z,457.00
2023-02-02T09:46:28.460Z,356.00
2023-02-02T09:47:28.530Z,360.00
2023-02-02T09:48:28.430Z,306.00
2023-02-02T09:49:28.411Z,315.00
2023-02-02T09:50:28.416Z,396.00
2023-02-02T09:51:28.397Z,313.00
2023-02-02T09:52:28.396Z,315.00
2023-02-02T09:53:28.384Z,319.00
2023-02-02T09:54:28.372Z,323.00
2023-02-02T09:55:28.359Z,302.00
2023-02-02T09:56:28.360Z,347.00
2023-02-02T09:57:28.347Z,336.00
2023-02-02T09:58:28.336Z,373.00
2023-02-02T09:59:28.368Z,379.00
2023-02-02T10:00:28.327Z,345.00
2023-02-02T10:01:28.336Z,349.00
2023-02-02T10:02:28.262Z,406.00
2023-02-02T10:03:28.349Z,395.00
2023-02-02T10:04:28.245Z,354.00
2023-02-02T10:05:28.206Z,375.00
2023-02-02T10:06:28.204Z,309.00
2023-02-02T10:07:28.178Z,301.00
2023-02-02T10:08:34.661Z,334.00
2023-02-02T10:09:28.181Z,333.00
2023-02-02T10:10:28.169Z,335.00
2023-02-02T10:11:28.147Z,363.00
2023-02-02T10:12:28.142Z,325.00
2023-02-02T10:13:28.102Z,342.00
2023-02-02T10:14:28.145Z,346.00
2023-02-02T10:15:28.250Z,386.00
2023-02-02T10:16:28.051Z,392.00
2023-02-02T10:17:28.058Z,384.00
2023-02-02T10:18:28.074Z,393.00
2023-02-02T10:19:28.023Z,271.00
2023-02-02T10:20:28.307Z,293.00
2023-02-02T10:21:28.008Z,299.00
2023-02-02T10:22:27.982Z,300.00
2023-02-02T10:23:27.958Z,324.00
2023-02-02T10:24:27.979Z,324.00
2023-02-02T10:25:27.944Z,310.00
2023-02-02T10:26:27.956Z,305.00
2023-02-02T10:27:27.916Z,315.00
2023-02-02T10:28:27.897Z,353.00
2023-02-02T10:29:29.295Z,353.00
2023-02-02T10:30:28.019Z,404.00
2023-02-02T10:31:27.939Z,295.00
2023-02-02T10:32:27.860Z,407.00
2023-02-02T10:33:27.817Z,286.00
2023-02-02T10:34:27.836Z,397.00
2023-02-02T10:35:27.828Z,360.00
2023-02-02T10:36:27.818Z,361.00
2023-02-02T10:37:27.771Z,418.00
2023-02-02T10:38:27.778Z,455.00
2023-02-02T10:39:27.743Z,331.00
2023-02-02T10:40:28.103Z,394.00
2023-02-02T10:41:27.725Z,396.00
2023-02-02T10:42:27.754Z,397.00
2023-02-02T10:43:27.698Z,391.00
2023-02-02T10:44:27.695Z,395.00
2023-02-02T10:45:27.798Z,397.00
2023-02-02T10:46:27.776Z,399.00
2023-02-02T10:47:27.670Z,398.00
2023-02-02T10:48:27.720Z,391.00
2023-02-02T10:49:27.626Z,437.00
2023-02-02T10:50:28.246Z,290.00
2023-02-02T10:51:27.638Z,314.00
2023-02-02T10:52:27.636Z,306.00
2023-02-02T10:53:27.618Z,307.00
2023-02-02T10:54:27.589Z,297.00
2023-02-02T10:55:27.587Z,307.00
2023-02-02T10:56:27.691Z,316.00
2023-02-02T10:57:27.522Z,349.00
2023-02-02T10:58:27.586Z,354.00
2023-02-02T10:59:27.486Z,340.00
2023-02-02T11:00:28.000Z,329.00
2023-02-02T11:01:27.532Z,336.00
2023-02-02T11:02:27.522Z,348.00
2023-02-02T11:03:27.479Z,347.00
2023-02-02T11:04:27.446Z,420.00
2023-02-02T11:05:27.444Z,315.00
2023-02-02T11:06:27.466Z,296.00
2023-02-02T11:07:27.401Z,290.00
2023-02-02T11:08:27.401Z,287.00
2023-02-02T11:09:27.392Z,463.00
2023-02-02T11:10:27.664Z,268.00
2023-02-02T11:11:27.330Z,412.00
2023-02-02T11:12:27.353Z,329.00
2023-02-02T11:13:27.337Z,399.00
2023-02-02T11:14:27.299Z,303.00
2023-02-02T11:15:27.280Z,363.00
2023-02-02T11:16:38.877Z,461.00
2023-02-02T11:17:27.269Z,455.00
2023-02-02T11:18:27.390Z,451.00
2023-02-02T11:19:27.212Z,447.00
2023-02-02T11:20:27.362Z,442.00
2023-02-02T11:21:27.209Z,333.00
2023-02-02T11:22:27.190Z,339.00
2023-02-02T11:23:27.180Z,341.00
2023-02-02T11:24:27.159Z,324.00
2023-02-02T11:25:27.158Z,337.00
2023-02-02T11:26:27.146Z,348.00
2023-02-02T11:27:27.113Z,317.00
2023-02-02T11:28:27.144Z,335.00
2023-02-02T11:29:27.076Z,418.00
2023-02-02T11:30:27.238Z,448.00
2023-02-02T11:31:27.207Z,290.00
2023-02-02T11:32:27.048Z,356.00
2023-02-02T11:33:27.038Z,349.00
2023-02-02T11:34:27.041Z,349.00
2023-02-02T11:35:27.036Z,410.00
2023-02-02T11:36:27.033Z,396.00
2023-02-02T11:37:26.974Z,301.00
2023-02-02T11:38:26.982Z,296.00
2023-02-02T11:39:26.993Z,294.00
2023-02-02T11:40:27.201Z,394.00
2023-02-02T11:41:26.946Z,386.00
2023-02-02T11:42:26.935Z,405.00
2023-02-02T11:43:26.912Z,318.00
2023-02-02T11:44:26.886Z,302.00
2023-02-02T11:45:26.887Z,319.00
2023-02-02T11:46:26.923Z,390.00
2023-02-02T11:47:26.853Z,327.00
2023-02-02T11:48:26.926Z,299.00
2023-02-02T11:49:26.829Z,300.00
2023-02-02T11:50:27.071Z,300.00
2023-02-02T11:51:26.870Z,329.00
2023-02-02T11:52:26.798Z,337.00
2023-02-02T11:53:26.795Z,312.00
2023-02-02T11:54:26.747Z,309.00
2023-02-02T11:55:26.867Z,303.00
2023-02-02T11:56:26.746Z,357.00
2023-02-02T11:57:26.705Z,289.00
2023-02-02T11:58:26.706Z,358.00
2023-02-02T11:59:26.692Z,443.00
2023-02-02T12:00:27.236Z,468.00
2023-02-02T12:01:26.748Z,483.00
2023-02-02T12:02:26.651Z,390.00
2023-02-02T12:03:26.627Z,354.00
2023-02-02T12:04:26.798Z,335.00
2023-02-02T12:05:26.615Z,310.00
2023-02-02T12:06:26.601Z,302.00
2023-02-02T12:07:26.615Z,336.00
2023-02-02T12:08:26.570Z,348.00
2023-02-02T12:09:26.546Z,340.00
2023-02-02T12:10:26.842Z,320.00
2023-02-02T12:11:26.526Z,354.00
2023-02-02T12:12:26.511Z,390.00
2023-02-02T12:13:26.502Z,409.00
2023-02-02T12:14:26.482Z,428.00
2023-02-02T12:15:26.480Z,261.00
2023-02-02T12:16:26.516Z,423.00
2023-02-02T12:17:26.457Z,426.00
2023-02-02T12:18:26.438Z,366.00
2023-02-02T12:19:26.430Z,454.00
2023-02-02T12:20:26.805Z,382.00
2023-02-02T12:21:26.402Z,400.00
2023-02-02T12:22:26.404Z,391.00
2023-02-02T12:23:26.405Z,382.00
2023-02-02T12:24:26.339Z,384.00
2023-02-02T12:25:26.945Z,265.00
2023-02-02T12:26:26.350Z,256.00
2023-02-02T12:27:26.322Z,252.00
2023-02-02T12:28:26.312Z,251.00
2023-02-02T12:29:26.290Z,254.00
2023-02-02T12:30:26.672Z,254.00
2023-02-02T12:31:26.333Z,313.00
2023-02-02T12:32:26.244Z,394.00
2023-02-02T12:33:26.232Z,382.00
2023-02-02T12:34:26.216Z,378.00
2023-02-02T12:35:26.285Z,377.00
2023-02-02T12:36:26.192Z,370.00
2023-02-02T12:37:26.200Z,380.00
2023-02-02T12:38:26.196Z,385.00
2023-02-02T12:39:26.174Z,257.00
2023-02-02T12:40:26.493Z,348.00
2023-02-02T12:41:26.120Z,424.00
2023-02-02T12:42:26.137Z,312.00